createdAt,value
2023-04-20T03:59:01.039Z,20.96
2023-04-20T04:00:00.888Z,20.98
2023-04-20T04:01:00.853Z,21.04
2023-04-20T04:02:00.904Z,21.01
2023-04-20T04:03:01.039Z,21.11
2023-04-20T04:04:01.017Z,20.97
2023-04-20T04:05:00.994Z,21.01
2023-04-20T04:06:00.815Z,21.04
2023-04-20T04:07:00.821Z,21.09
2023-04-20T04:08:00.798Z,21.11
2023-04-20T04:09:00.787Z,21.09
2023-04-20T04:10:00.877Z,21.01
2023-04-20T04:11:00.787Z,21.15
2023-04-20T04:12:00.811Z,21.12
2023-04-20T04:13:00.775Z,21.12
2023-04-20T04:14:00.817Z,21.16
2023-04-20T04:15:00.791Z,21.21
2023-04-20T04:16:00.756Z,21.13
2023-04-20T04:17:00.853Z,21.18
2023-04-20T04:18:00.804Z,21.22
2023-04-20T04:19:00.752Z,21.27
2023-04-20T04:20:00.748Z,21.15
2023-04-20T04:21:00.750Z,21.25
2023-04-20T04:22:00.743Z,21.30
2023-04-20T04:23:00.762Z,21.27
2023-04-20T04:24:00.726Z,21.28
2023-04-20T04:25:00.738Z,21.36
2023-04-20T04:26:00.725Z,21.31
2023-04-20T04:27:00.722Z,21.31
2023-04-20T04:28:00.741Z,21.31
2023-04-20T04:29:00.745Z,21.34
2023-04-20T04:30:00.732Z,21.36
2023-04-20T04:31:00.803Z,21.41
2023-04-20T04:32:00.704Z,21.36
2023-04-20T04:33:00.719Z,21.41
2023-04-20T04:34:00.723Z,21.37
2023-04-20T04:35:00.723Z,21.40
2023-04-20T04:36:00.763Z,21.48
2023-04-20T04:37:00.689Z,21.51
2023-04-20T04:38:00.715Z,21.51
2023-04-20T04:39:00.698Z,21.46
2023-04-20T04:40:00.686Z,21.53
2023-04-20T04:41:00.680Z,21.56
2023-04-20T04:42:00.940Z,21.51
2023-04-20T04:43:00.695Z,21.53
2023-04-20T04:44:00.685Z,21.61
2023-04-20T04:45:00.661Z,21.53
2023-04-20T04:46:00.676Z,21.52
2023-04-20T04:47:00.655Z,21.61
2023-04-20T04:48:00.695Z,21.59
2023-04-20T04:49:00.644Z,21.66
2023-04-20T04:50:00.654Z,21.62
2023-04-20T04:51:00.651Z,21.66
2023-04-20T04:52:00.621Z,21.66
2023-04-20T04:53:00.700Z,21.66
2023-04-20T04:54:00.634Z,21.66
2023-04-20T04:55:00.625Z,21.67
2023-04-20T04:56:00.618Z,21.67
2023-04-20T04:57:00.607Z,21.62
2023-04-20T04:58:00.637Z,21.66
2023-04-20T04:59:00.614Z,21.67
2023-04-20T05:00:00.630Z,21.73
2023-04-20T05:01:00.636Z,21.77
2023-04-20T05:02:00.640Z,21.74
2023-04-20T05:03:00.808Z,21.73
2023-04-20T05:04:00.823Z,21.82
2023-04-20T05:05:00.589Z,21.74
2023-04-20T05:06:00.597Z,21.70
2023-04-20T05:07:00.578Z,21.76
2023-04-20T05:08:00.575Z,21.71
2023-04-20T05:09:00.578Z,21.77
2023-04-20T05:10:00.574Z,21.83
2023-04-20T05:11:00.562Z,21.85
2023-04-20T05:12:00.559Z,21.76
2023-04-20T05:13:00.567Z,21.80
2023-04-20T05:14:00.578Z,21.83
2023-04-20T05:15:00.601Z,21.82
2023-04-20T05:16:00.574Z,21.85
2023-04-20T05:17:00.545Z,21.86
2023-04-20T05:18:00.597Z,21.82
2023-04-20T05:19:00.543Z,21.82
2023-04-20T05:20:00.550Z,21.89
2023-04-20T05:21:00.539Z,21.85
2023-04-20T05:22:00.521Z,21.93
2023-04-20T05:23:00.542Z,21.86
2023-04-20T05:24:00.556Z,21.93
2023-04-20T05:25:00.555Z,21.92
2023-04-20T05:26:00.653Z,21.93
2023-04-20T05:27:00.504Z,21.97
2023-04-20T05:28:00.535Z,21.89
2023-04-20T05:29:00.504Z,21.90
2023-04-20T05:30:13.181Z,21.96
2023-04-20T05:31:00.515Z,21.97
2023-04-20T05:32:00.531Z,21.96
2023-04-20T05:33:00.539Z,21.94
2023-04-20T05:34:00.491Z,21.93
2023-04-20T05:35:00.518Z,21.92
2023-04-20T05:36:00.522Z,21.89
2023-04-20T05:37:00.486Z,22.00
2023-04-20T05:38:00.461Z,21.97
2023-04-20T05:39:00.470Z,21.94
2023-04-20T05:40:00.478Z,21.99
2023-04-20T05:41:00.491Z,21.97
2023-04-20T05:42:00.503Z,21.94
2023-04-20T05:43:00.456Z,22.05
2023-04-20T05:44:00.466Z,22.00
2023-04-20T05:45:00.503Z,22.02
2023-04-20T05:46:00.550Z,22.00
2023-04-20T05:47:00.453Z,21.99
2023-04-20T05:48:00.451Z,21.97
2023-04-20T05:49:00.440Z,22.05
2023-04-20T05:50:00.545Z,21.97
2023-04-20T05:51:00.501Z,22.07
2023-04-20T05:52:00.467Z,22.00
2023-04-20T05:53:00.551Z,22.05
2023-04-20T05:54:00.792Z,22.05
2023-04-20T05:55:00.583Z,21.99
2023-04-20T05:56:01.043Z,22.07
2023-04-20T05:57:00.594Z,22.09
2023-04-20T05:58:01.045Z,22.11
2023-04-20T05:59:00.425Z,22.08
2023-04-20T06:00:00.634Z,22.04
2023-04-20T06:01:00.514Z,22.05
2023-04-20T06:02:00.483Z,22.11
2023-04-20T06:03:00.610Z,22.15
2023-04-20T06:04:00.749Z,22.11
2023-04-20T06:05:00.592Z,22.12
2023-04-20T06:06:00.427Z,22.11
2023-04-20T06:07:00.435Z,22.11
2023-04-20T06:08:00.372Z,22.02
2023-04-20T06:09:00.403Z,22.05
2023-04-20T06:10:00.370Z,22.09
2023-04-20T06:11:00.432Z,22.16
2023-04-20T06:12:00.399Z,22.15
2023-04-20T06:13:00.419Z,22.16
2023-04-20T06:14:00.411Z,22.18
2023-04-20T06:15:00.391Z,22.18
2023-04-20T06:16:00.435Z,22.05
2023-04-20T06:17:00.343Z,22.26
2023-04-20T06:18:00.397Z,22.22
2023-04-20T06:19:00.343Z,22.18
2023-04-20T06:20:00.334Z,22.27
2023-04-20T06:21:00.338Z,22.14
2023-04-20T06:22:01.213Z,22.14
2023-04-20T06:23:00.409Z,22.14
2023-04-20T06:24:00.400Z,22.22
2023-04-20T06:25:00.331Z,22.12
2023-04-20T06:26:00.353Z,22.09
2023-04-20T06:27:00.343Z,22.23
2023-04-20T06:29:32.931Z,22.09
2023-04-20T06:30:32.836Z,22.22
2023-04-20T06:31:32.886Z,22.29
2023-04-20T06:32:32.909Z,22.24
2023-04-20T06:33:32.818Z,22.29
2023-04-20T06:34:32.821Z,22.27
2023-04-20T06:35:32.839Z,22.31
2023-04-20T06:36:32.818Z,22.26
2023-04-20T06:37:32.810Z,22.29
2023-04-20T06:38:32.852Z,22.27
2023-04-20T06:39:32.928Z,22.31
2023-04-20T06:40:32.818Z,22.33
2023-04-20T06:41:32.803Z,22.38
2023-04-20T06:42:32.792Z,22.34
2023-04-20T06:43:32.804Z,22.36
2023-04-20T06:44:32.784Z,22.41
2023-04-20T06:45:34.143Z,22.42
2023-04-20T06:46:32.817Z,22.42
2023-04-20T06:47:32.918Z,22.39
2023-04-20T06:48:33.254Z,22.44
2023-04-20T06:49:32.780Z,22.45
2023-04-20T06:50:32.757Z,22.46
2023-04-20T06:51:32.807Z,22.46
2023-04-20T06:52:32.741Z,22.52
2023-04-20T06:53:32.766Z,22.45
2023-04-20T06:54:32.803Z,22.51
2023-04-20T06:55:32.756Z,22.51
2023-04-20T06:56:35.387Z,22.48
2023-04-20T06:57:32.744Z,22.48
2023-04-20T06:58:32.730Z,22.55
2023-04-20T06:59:32.775Z,22.61
2023-04-20T07:00:32.749Z,22.55
2023-04-20T07:01:32.864Z,22.61
2023-04-20T07:02:32.746Z,22.59
2023-04-20T07:04:32.781Z,22.61
2023-04-20T07:05:32.814Z,22.59
2023-04-20T07:06:32.705Z,22.61
2023-04-20T07:07:32.713Z,22.55
2023-04-20T07:08:32.701Z,22.67
2023-04-20T07:09:32.709Z,22.64
2023-04-20T07:10:32.725Z,22.71
2023-04-20T07:11:32.716Z,22.69
2023-04-20T07:12:32.742Z,22.71
2023-04-20T07:13:33.808Z,22.70
2023-04-20T07:14:32.770Z,22.70
2023-04-20T07:15:32.729Z,22.73
2023-04-20T07:16:32.774Z,22.78
2023-04-20T07:17:32.682Z,22.73
2023-04-20T07:18:35.152Z,22.71
2023-04-20T07:19:32.694Z,22.84
2023-04-20T07:20:32.728Z,22.81
2023-04-20T07:21:32.788Z,22.82
2023-04-20T07:22:32.689Z,22.85
2023-04-20T07:23:32.724Z,22.81
2023-04-20T07:24:32.797Z,22.85
2023-04-20T07:25:32.664Z,22.82
2023-04-20T07:26:32.854Z,22.86
2023-04-20T07:27:32.686Z,22.84
2023-04-20T07:28:32.645Z,22.82
2023-04-20T07:29:34.024Z,22.86
2023-04-20T07:30:32.862Z,22.82
2023-04-20T07:31:35.292Z,22.91
2023-04-20T07:32:32.820Z,22.85
2023-04-20T07:33:33.537Z,22.79
2023-04-20T07:34:32.721Z,22.82
2023-04-20T07:35:32.680Z,22.92
2023-04-20T07:36:32.646Z,22.86
2023-04-20T07:37:32.674Z,22.91
2023-04-20T07:38:32.788Z,22.86
2023-04-20T07:39:32.650Z,22.84
2023-04-20T07:40:32.623Z,22.88
2023-04-20T07:41:33.029Z,22.91
2023-04-20T07:42:32.674Z,22.92
2023-04-20T07:43:32.709Z,22.96
2023-04-20T07:44:32.630Z,22.91
2023-04-20T07:45:32.690Z,22.97
2023-04-20T07:46:32.642Z,22.91
2023-04-20T07:47:32.763Z,22.92
2023-04-20T07:48:32.652Z,22.99
2023-04-20T07:49:32.625Z,22.89
2023-04-20T07:50:32.766Z,22.91
2023-04-20T07:51:32.590Z,22.92
2023-04-20T07:52:32.618Z,22.96
2023-04-20T07:53:32.633Z,22.88
2023-04-20T07:54:32.599Z,22.92
2023-04-20T07:55:33.205Z,22.92
2023-04-20T07:56:32.699Z,22.94
2023-04-20T07:57:32.717Z,22.91
2023-04-20T07:58:32.611Z,22.96
2023-04-20T07:59:32.777Z,22.96
2023-04-20T08:00:32.925Z,22.91
2023-04-20T08:01:32.650Z,22.97
2023-04-20T08:02:32.744Z,23.00
2023-04-20T08:03:32.705Z,22.91
2023-04-20T08:04:32.996Z,22.91
2023-04-20T08:05:32.729Z,23.04
2023-04-20T08:06:32.545Z,23.01
2023-04-20T08:07:32.599Z,23.00
2023-04-20T08:08:32.564Z,23.06
2023-04-20T08:09:32.548Z,23.01
2023-04-20T08:10:32.563Z,23.01
2023-04-20T08:11:32.549Z,23.07
2023-04-20T08:12:32.553Z,23.12
2023-04-20T08:13:32.608Z,23.04
2023-04-20T08:14:32.540Z,23.01
2023-04-20T08:15:32.560Z,23.01
2023-04-20T08:16:32.618Z,23.10
2023-04-20T08:17:34.099Z,23.06
2023-04-20T08:18:32.535Z,23.06
2023-04-20T08:19:32.550Z,23.07
2023-04-20T08:21:32.535Z,23.06
2023-04-20T08:22:32.514Z,23.21
2023-04-20T08:23:32.515Z,23.09
2023-04-20T08:24:32.524Z,23.15
2023-04-20T08:25:32.500Z,23.09
2023-04-20T08:26:32.514Z,23.07
2023-04-20T08:27:32.512Z,23.12
2023-04-20T08:28:33.897Z,23.12
2023-04-20T08:29:32.516Z,23.04
2023-04-20T08:30:32.754Z,23.15
2023-04-20T08:31:32.563Z,23.09
2023-04-20T08:32:32.549Z,23.16
2023-04-20T08:33:32.476Z,23.22
2023-04-20T08:34:32.480Z,23.25
2023-04-20T08:35:32.491Z,23.22
2023-04-20T08:36:32.481Z,23.26
2023-04-20T08:37:33.032Z,23.32
2023-04-20T08:38:34.224Z,23.37
2023-04-20T08:39:33.078Z,23.44
2023-04-20T08:40:32.496Z,23.35
2023-04-20T08:41:32.472Z,23.38
2023-04-20T08:42:32.478Z,23.37
2023-04-20T08:43:32.523Z,23.38
2023-04-20T08:44:32.453Z,23.40
2023-04-20T08:45:32.482Z,23.38
2023-04-20T08:46:32.769Z,23.41
2023-04-20T08:47:32.553Z,23.47
2023-04-20T08:48:33.708Z,23.47
2023-04-20T08:49:32.453Z,23.44
2023-04-20T08:50:32.460Z,23.48
2023-04-20T08:51:32.772Z,23.45
2023-04-20T08:52:32.512Z,23.48
2023-04-20T08:53:32.438Z,23.47
2023-04-20T08:54:32.624Z,23.48
2023-04-20T08:55:32.461Z,23.55
2023-04-20T08:56:32.463Z,23.62
2023-04-20T08:57:32.440Z,23.62
2023-04-20T08:58:32.451Z,23.60
2023-04-20T08:59:32.416Z,23.63
2023-04-20T09:00:32.422Z,23.63
2023-04-20T09:01:35.732Z,23.70
2023-04-20T09:02:32.525Z,23.67
2023-04-20T09:03:32.642Z,23.71
2023-04-20T09:04:32.447Z,23.72
2023-04-20T09:05:32.457Z,23.85
2023-04-20T09:06:32.475Z,23.96
2023-04-20T09:07:32.473Z,23.93
2023-04-20T09:08:32.437Z,23.96
2023-04-20T09:09:32.411Z,23.99
2023-04-20T09:10:32.412Z,24.03
2023-04-20T09:11:32.398Z,23.99
2023-04-20T09:12:32.415Z,24.11
2023-04-20T09:13:32.391Z,24.08
2023-04-20T09:14:32.564Z,24.18
2023-04-20T09:15:32.405Z,24.18
2023-04-20T09:16:32.481Z,24.26
2023-04-20T09:17:32.477Z,24.19
2023-04-20T09:18:32.432Z,24.30
2023-04-20T09:19:32.442Z,24.29
2023-04-20T09:20:32.413Z,24.39
2023-04-20T09:21:32.452Z,24.44
2023-04-20T09:22:32.404Z,24.46
2023-04-20T09:23:32.375Z,24.51
2023-04-20T09:24:32.480Z,24.48
2023-04-20T09:25:32.398Z,24.58
2023-04-20T09:30:05.109Z,24.74
2023-04-20T09:31:32.682Z,24.77
2023-04-20T09:32:05.112Z,24.83
2023-04-20T09:33:05.186Z,24.70
2023-04-20T09:34:05.794Z,24.90
2023-04-20T09:35:04.996Z,24.93
2023-04-20T09:36:05.110Z,24.94
2023-04-20T09:37:06.843Z,24.94
2023-04-20T09:38:05.028Z,25.00
2023-04-20T09:39:04.964Z,25.01
2023-04-20T09:40:04.961Z,25.01
2023-04-20T09:41:05.342Z,25.00
2023-04-20T09:42:05.005Z,25.01
2023-04-20T09:43:04.988Z,25.00
2023-04-20T09:44:04.973Z,24.97
2023-04-20T09:45:05.398Z,24.93
2023-04-20T09:46:05.126Z,24.90
2023-04-20T09:47:05.183Z,24.90
2023-04-20T09:48:05.578Z,24.90
2023-04-20T09:49:04.992Z,24.86
2023-04-20T09:50:19.255Z,24.77
2023-04-20T09:51:04.986Z,24.80
2023-04-20T09:52:05.015Z,24.78
2023-04-20T09:53:04.961Z,24.83
2023-04-20T09:54:04.973Z,24.83
2023-04-20T09:55:04.973Z,24.66
2023-04-20T09:56:05.038Z,24.77
2023-04-20T09:57:05.000Z,24.78
2023-04-20T09:58:05.003Z,24.75
2023-04-20T09:59:04.955Z,24.77
2023-04-20T10:01:05.076Z,24.80
2023-04-20T10:02:05.089Z,24.77
2023-04-20T10:13:23.144Z,24.49
2023-04-20T10:14:23.097Z,24.54
2023-04-20T10:15:23.057Z,24.54
2023-04-20T10:16:23.146Z,24.49
2023-04-20T10:17:23.255Z,24.51
2023-04-20T10:18:23.238Z,24.44
2023-04-20T10:19:23.037Z,24.49
2023-04-20T10:20:23.077Z,24.42
2023-04-20T10:21:23.059Z,24.44
2023-04-20T10:22:23.023Z,24.48
2023-04-20T10:23:23.030Z,24.54
2023-04-20T10:24:23.274Z,24.40
2023-04-20T10:25:23.064Z,24.48
2023-04-20T10:26:23.056Z,24.45
2023-04-20T10:27:23.116Z,24.44
2023-04-20T10:28:23.071Z,24.55
2023-04-20T10:29:23.116Z,24.49
2023-04-20T10:30:23.019Z,24.44
2023-04-20T10:31:23.074Z,24.44
2023-04-20T10:32:23.154Z,24.48
2023-04-20T10:33:23.117Z,24.48
2023-04-20T10:34:23.073Z,24.54
2023-04-20T10:35:23.004Z,24.44
2023-04-20T10:36:23.007Z,24.56
2023-04-20T10:37:23.002Z,24.56
2023-04-20T10:38:23.731Z,24.46
2023-04-20T10:39:23.292Z,24.51
2023-04-20T10:40:23.043Z,24.56
2023-04-20T10:41:23.119Z,24.49
2023-04-20T10:42:22.996Z,24.56
2023-04-20T10:43:23.586Z,24.64
2023-04-20T10:44:23.035Z,24.63
2023-04-20T10:45:23.056Z,24.80
2023-04-20T10:46:23.199Z,24.74
2023-04-20T10:47:23.138Z,24.80
2023-04-20T10:48:22.991Z,24.75
2023-04-20T10:49:23.067Z,24.75
2023-04-20T10:50:23.014Z,24.80
2023-04-20T10:51:23.021Z,24.78
2023-04-20T10:52:23.006Z,24.75
2023-04-20T10:53:23.154Z,24.74
2023-04-20T10:54:23.032Z,24.70
2023-04-20T10:55:23.010Z,24.74
2023-04-20T10:56:23.017Z,24.64
2023-04-20T10:57:22.985Z,24.63
2023-04-20T10:58:22.992Z,24.63
2023-04-20T10:59:23.005Z,24.59
2023-04-20T11:00:23.005Z,24.54
2023-04-20T11:01:23.260Z,24.44
2023-04-20T11:02:23.307Z,24.48
2023-04-20T11:03:23.068Z,24.34
2023-04-20T11:04:23.014Z,24.39
2023-04-20T11:05:23.412Z,24.29
2023-04-20T11:06:23.001Z,24.27
2023-04-20T11:07:23.047Z,24.26
2023-04-20T11:08:22.998Z,24.32
2023-04-20T11:09:23.045Z,24.18
2023-04-20T11:10:23.008Z,24.24
2023-04-20T11:11:23.036Z,24.15
2023-04-20T11:12:23.004Z,24.18
2023-04-20T11:13:23.620Z,24.26
2023-04-20T11:14:23.036Z,24.24
2023-04-20T11:15:23.084Z,24.12
2023-04-20T11:16:30.461Z,24.22
2023-04-20T11:17:23.253Z,24.22
2023-04-20T11:18:25.116Z,24.24
2023-04-20T11:19:23.169Z,24.12
2023-04-20T11:20:22.990Z,24.18
2023-04-20T11:21:31.717Z,24.30
2023-04-20T11:22:23.014Z,24.17
2023-04-20T11:23:22.972Z,24.17
2023-04-20T11:24:31.219Z,24.15
2023-04-20T11:25:23.612Z,24.22
2023-04-20T11:26:23.102Z,24.12
2023-04-20T11:27:23.164Z,24.18
2023-04-20T11:28:24.775Z,24.22
2023-04-20T11:29:23.070Z,24.12
2023-04-20T11:30:24.135Z,24.18
2023-04-20T11:31:24.140Z,24.19
2023-04-20T11:32:23.283Z,24.18
2023-04-20T11:33:23.177Z,24.14
2023-04-20T11:34:22.958Z,24.26
2023-04-20T11:35:23.060Z,24.29
2023-04-20T11:36:23.010Z,24.42
2023-04-20T11:37:22.984Z,24.55
2023-04-20T11:38:22.993Z,24.70
2023-04-20T11:39:22.998Z,24.85
2023-04-20T11:40:22.930Z,24.77
2023-04-20T11:41:23.037Z,24.93
2023-04-20T11:42:22.983Z,25.08
2023-04-20T11:43:23.081Z,25.26
2023-04-20T11:44:22.986Z,25.30
2023-04-20T11:45:22.962Z,25.37
2023-04-20T11:46:23.076Z,25.47
2023-04-20T11:47:23.101Z,25.67
2023-04-20T11:48:22.938Z,25.74
2023-04-20T11:49:22.947Z,25.79
2023-04-20T11:50:22.946Z,25.93
2023-04-20T11:51:23.000Z,26.12
2023-04-20T11:52:22.936Z,26.27
2023-04-20T11:53:22.987Z,26.30
2023-04-20T11:54:22.980Z,26.32
2023-04-20T11:55:22.928Z,26.26
2023-04-20T11:56:23.154Z,26.44
2023-04-20T11:57:23.019Z,26.59
2023-04-20T11:58:22.978Z,26.74
2023-04-20T11:59:23.943Z,26.93
2023-04-20T12:00:23.049Z,26.99
2023-04-20T12:01:23.036Z,27.12
2023-04-20T12:02:23.238Z,27.26
2023-04-20T12:03:23.177Z,27.33
2023-04-20T12:04:23.441Z,27.43
2023-04-20T12:05:23.153Z,27.38
2023-04-20T12:06:23.172Z,27.36
2023-04-20T12:07:23.009Z,27.61
2023-04-20T12:08:23.034Z,27.51
2023-04-20T12:09:23.046Z,27.52
2023-04-20T12:10:22.986Z,27.57
2023-04-20T12:11:22.977Z,27.62
2023-04-20T12:12:22.996Z,27.61
2023-04-20T12:13:23.004Z,27.75
2023-04-20T12:14:23.018Z,27.64
2023-04-20T12:15:22.953Z,27.65
2023-04-20T12:16:22.985Z,27.64
2023-04-20T12:17:23.172Z,27.62
2023-04-20T12:18:22.961Z,27.53
2023-04-20T12:19:22.960Z,27.64
2023-04-20T12:20:23.020Z,27.66
2023-04-20T12:21:23.865Z,27.79
2023-04-20T12:22:23.062Z,27.80
2023-04-20T12:23:23.032Z,27.72
2023-04-20T12:24:23.045Z,27.76
2023-04-20T12:25:23.043Z,27.64
2023-04-20T12:26:31.981Z,27.53
2023-04-20T12:27:23.055Z,27.52
2023-04-20T12:28:23.031Z,27.38
2023-04-20T12:29:22.970Z,27.31
2023-04-20T12:30:23.004Z,27.26
2023-04-20T12:31:25.107Z,27.18
2023-04-20T12:32:23.046Z,27.21
2023-04-20T12:33:23.071Z,27.34
2023-04-20T12:34:23.029Z,27.66
2023-04-20T12:35:22.981Z,27.69
2023-04-20T12:36:23.049Z,27.64
2023-04-20T12:37:23.061Z,27.51
2023-04-20T12:38:23.009Z,27.43
2023-04-20T12:39:23.010Z,27.43
2023-04-20T12:40:23.002Z,27.57
2023-04-20T12:41:23.050Z,27.89
2023-04-20T12:42:23.033Z,27.89
2023-04-20T12:43:23.081Z,27.89
2023-04-20T12:44:23.002Z,27.81
2023-04-20T12:45:23.045Z,27.98
2023-04-20T12:46:23.257Z,28.01
2023-04-20T12:47:23.242Z,27.84
2023-04-20T12:48:23.195Z,27.75
2023-04-20T12:49:23.099Z,27.68
2023-04-20T12:50:23.073Z,27.74
2023-04-20T12:51:23.052Z,27.66
2023-04-20T12:52:23.051Z,27.84
2023-04-20T12:53:23.130Z,27.86
2023-04-20T12:54:23.036Z,27.86
2023-04-20T12:55:23.018Z,27.89
2023-04-20T12:56:23.004Z,27.86
2023-04-20T12:57:23.099Z,28.16
2023-04-20T12:58:23.118Z,28.24
2023-04-20T12:59:23.056Z,28.18
2023-04-20T13:00:23.044Z,28.02
2023-04-20T13:01:23.246Z,27.91
2023-04-20T13:02:23.377Z,27.81
2023-04-20T13:03:23.334Z,27.75
2023-04-20T13:04:23.764Z,27.72
2023-04-20T13:05:23.069Z,27.66
2023-04-20T13:06:23.038Z,27.62
2023-04-20T13:07:23.008Z,27.64
2023-04-20T13:09:23.167Z,27.61
2023-04-20T13:10:23.046Z,27.55
2023-04-20T13:11:23.619Z,27.46
2023-04-20T13:12:23.093Z,27.41
2023-04-20T13:13:23.108Z,27.36
2023-04-20T13:14:23.027Z,27.27
2023-04-20T13:15:35.556Z,27.24
2023-04-20T13:16:23.112Z,27.04
2023-04-20T13:17:23.227Z,26.99
2023-04-20T13:19:55.761Z,27.33
2023-04-20T13:20:55.729Z,27.53
2023-04-20T13:21:55.724Z,27.65
2023-04-20T13:22:58.302Z,28.09
2023-04-20T13:23:56.965Z,28.06
2023-04-20T13:24:55.762Z,28.17
2023-04-20T13:25:55.728Z,28.06
2023-04-20T13:26:55.706Z,28.16
2023-04-20T13:27:55.764Z,28.14
2023-04-20T13:28:55.716Z,28.33
2023-04-20T13:29:55.839Z,28.67
2023-04-20T13:30:55.722Z,28.97
2023-04-20T13:31:55.787Z,28.94
2023-04-20T13:32:55.854Z,28.72
2023-04-20T13:33:55.749Z,28.85
2023-04-20T13:34:55.759Z,28.94
2023-04-20T13:35:55.744Z,29.10
2023-04-20T13:36:55.742Z,29.05
2023-04-20T13:37:55.752Z,29.11
2023-04-20T13:38:55.761Z,29.10
2023-04-20T13:39:55.772Z,28.90
2023-04-20T13:40:55.804Z,28.80
2023-04-20T13:41:55.892Z,28.51
2023-04-20T13:42:55.914Z,28.61
2023-04-20T13:43:55.944Z,28.57
2023-04-20T13:44:55.841Z,28.45
2023-04-20T13:45:56.782Z,28.26
2023-04-20T13:46:55.767Z,28.27
2023-04-20T13:47:55.846Z,28.08
2023-04-20T13:48:55.759Z,28.08
2023-04-20T13:49:55.825Z,28.38
2023-04-20T13:50:55.826Z,28.57
2023-04-20T13:51:55.781Z,28.43
2023-04-20T13:52:55.824Z,28.27
2023-04-20T13:53:55.775Z,28.14
2023-04-20T13:54:55.784Z,28.05
2023-04-20T13:55:55.814Z,28.27
2023-04-20T13:56:55.790Z,28.68
2023-04-20T13:57:55.810Z,28.94
2023-04-20T13:58:55.760Z,29.21
2023-04-20T13:59:55.825Z,29.32
2023-04-20T14:00:55.813Z,29.15
2023-04-20T14:01:55.774Z,29.20
2023-04-20T14:02:55.810Z,29.08
2023-04-20T14:03:55.961Z,28.94
2023-04-20T14:04:55.880Z,28.68
2023-04-20T14:05:55.774Z,28.55
2023-04-20T14:06:55.772Z,28.57
2023-04-20T14:07:55.771Z,28.38
2023-04-20T14:08:55.823Z,28.28
2023-04-20T14:09:55.821Z,28.16
2023-04-20T14:10:55.792Z,28.02
2023-04-20T14:11:57.145Z,28.01
2023-04-20T14:12:55.802Z,28.03
2023-04-20T14:13:55.842Z,28.18
2023-04-20T14:14:55.792Z,28.53
2023-04-20T14:15:55.811Z,28.76
2023-04-20T14:16:55.815Z,28.94
2023-04-20T14:17:55.909Z,28.90
2023-04-20T14:18:55.830Z,28.95
2023-04-20T14:19:55.858Z,29.03
2023-04-20T14:20:55.817Z,29.36
2023-04-20T14:21:55.864Z,29.51
2023-04-20T14:22:55.808Z,29.79
2023-04-20T14:23:55.822Z,29.88
2023-04-20T14:24:55.803Z,30.07
2023-04-20T14:25:55.816Z,30.13
2023-04-20T14:26:55.867Z,30.48
2023-04-20T14:27:55.819Z,30.57
2023-04-20T14:28:55.877Z,30.69
2023-04-20T14:29:55.823Z,30.71
2023-04-20T14:30:55.876Z,30.88
2023-04-20T14:31:55.884Z,30.86
2023-04-20T14:32:55.856Z,30.88
2023-04-20T14:33:55.852Z,30.88
2023-04-20T14:34:55.865Z,31.04
2023-04-20T14:35:55.867Z,30.94
2023-04-20T14:36:55.855Z,30.88
2023-04-20T14:37:55.872Z,30.59
2023-04-20T14:38:55.877Z,30.39
2023-04-20T14:39:55.897Z,30.19
2023-04-20T14:40:55.900Z,30.04
2023-04-20T14:41:55.973Z,29.81
2023-04-20T14:42:55.871Z,29.72
2023-04-20T14:43:55.902Z,29.54
2023-04-20T14:44:55.934Z,29.42
2023-04-20T14:45:55.912Z,29.29
2023-04-20T14:46:55.963Z,29.06
2023-04-20T14:47:55.899Z,28.98
2023-04-20T14:48:55.907Z,28.85
2023-04-20T14:49:55.927Z,28.72
2023-04-20T14:50:55.958Z,28.70
2023-04-20T14:51:55.889Z,28.53
2023-04-20T14:52:55.898Z,28.54
2023-04-20T14:53:55.923Z,28.39
2023-04-20T14:54:55.908Z,28.18
2023-04-20T14:55:55.920Z,28.17
2023-04-20T14:56:55.909Z,28.11
2023-04-20T14:57:55.922Z,27.98
2023-04-20T14:58:55.917Z,27.81
2023-04-20T14:59:55.923Z,27.72
2023-04-20T15:00:55.934Z,27.66
2023-04-20T15:02:03.129Z,27.55
2023-04-20T15:02:56.154Z,27.48
2023-04-20T15:03:56.193Z,27.48
2023-04-20T15:04:56.074Z,27.48
2023-04-20T15:05:56.195Z,27.64
2023-04-20T15:06:55.919Z,27.71
2023-04-20T15:07:55.911Z,27.81
2023-04-20T15:08:55.897Z,28.01
2023-04-20T15:09:55.962Z,28.01
2023-04-20T15:10:55.927Z,28.01
2023-04-20T15:11:55.950Z,28.03
2023-04-20T15:12:55.924Z,28.01
2023-04-20T15:13:55.934Z,27.99
2023-04-20T15:14:55.952Z,27.86
2023-04-20T15:15:55.967Z,27.86
2023-04-20T15:16:56.049Z,27.74
2023-04-20T15:17:56.017Z,27.64
2023-04-20T15:18:55.974Z,27.51
2023-04-20T15:19:55.937Z,27.46
2023-04-20T15:20:55.987Z,27.30
2023-04-20T15:21:55.944Z,27.36
2023-04-20T15:22:55.952Z,27.13
2023-04-20T15:23:55.937Z,27.09
2023-04-20T15:24:55.936Z,26.90
2023-04-20T15:25:55.966Z,26.90
2023-04-20T15:26:55.936Z,26.72
2023-04-20T15:27:56.019Z,26.61
2023-04-20T15:28:55.935Z,26.49
2023-04-20T15:29:55.936Z,26.34
2023-04-20T15:30:55.967Z,26.30
2023-04-20T15:31:55.993Z,26.32
2023-04-20T15:32:56.016Z,26.12
2023-04-20T15:33:55.936Z,25.97
2023-04-20T15:34:55.927Z,25.89
2023-04-20T15:35:55.954Z,25.79
2023-04-20T15:36:55.944Z,25.74
2023-04-20T15:37:55.948Z,25.57
2023-04-20T15:38:57.707Z,25.60
2023-04-20T15:39:55.994Z,25.59
2023-04-20T15:40:55.991Z,25.44
2023-04-20T15:41:55.941Z,25.37
2023-04-20T15:42:55.924Z,25.24
2023-04-20T15:43:55.966Z,25.15
2023-04-20T15:44:55.938Z,25.08
2023-04-20T15:45:56.004Z,25.04
2023-04-20T15:46:55.938Z,25.00
2023-04-20T15:47:56.011Z,24.93
2023-04-20T15:48:55.977Z,24.75
2023-04-20T15:49:55.927Z,24.78
2023-04-20T15:50:55.934Z,24.67
2023-04-20T15:51:55.944Z,24.63
2023-04-20T15:52:55.953Z,24.64
2023-04-20T15:53:55.951Z,24.48
2023-04-20T15:54:55.933Z,24.44
2023-04-20T15:55:55.935Z,24.37
2023-04-20T15:56:55.930Z,24.33
2023-04-20T15:57:55.974Z,24.21
2023-04-20T15:58:55.927Z,24.24
2023-04-20T15:59:55.924Z,24.17
2023-04-20T16:00:55.940Z,24.12
2023-04-20T16:12:30.457Z,23.53
2023-04-20T16:13:30.427Z,23.50
2023-04-20T16:14:30.426Z,23.34
2023-04-20T16:15:30.495Z,23.38
2023-04-20T16:16:30.534Z,23.37
2023-04-20T16:17:30.480Z,23.28
2023-04-20T16:18:30.373Z,23.22
2023-04-20T16:19:30.419Z,23.28
2023-04-20T16:20:30.380Z,23.21
2023-04-20T16:21:30.383Z,23.16
2023-04-20T16:22:30.379Z,23.14
2023-04-20T16:23:30.388Z,23.09
2023-04-20T16:24:30.389Z,23.07
2023-04-20T16:25:30.593Z,23.03
2023-04-20T16:26:30.356Z,23.01
2023-04-20T16:27:30.378Z,22.99
2023-04-20T16:28:30.380Z,22.94
2023-04-20T16:29:30.390Z,22.97
2023-04-20T16:30:30.368Z,22.86
2023-04-20T16:31:30.400Z,22.84
2023-04-20T16:32:30.448Z,22.79
2023-04-20T16:33:30.330Z,22.79
2023-04-20T16:34:30.338Z,22.75
2023-04-20T16:35:30.356Z,22.73
2023-04-20T16:36:30.337Z,22.75
2023-04-20T16:37:30.339Z,22.73
2023-04-20T16:38:30.342Z,22.70
2023-04-20T16:39:30.362Z,22.64
2023-04-20T16:40:30.308Z,22.60
2023-04-20T16:41:30.350Z,22.60
2023-04-20T16:42:30.368Z,22.59
2023-04-20T16:43:30.317Z,22.61
2023-04-20T16:44:30.331Z,22.59
2023-04-20T16:45:30.317Z,22.57
2023-04-20T16:46:30.336Z,22.51
2023-04-20T16:47:30.321Z,22.59
2023-04-20T16:48:30.317Z,22.48
2023-04-20T16:49:30.305Z,22.51
2023-04-20T16:50:30.277Z,22.51
2023-04-20T16:51:30.288Z,22.46
2023-04-20T16:52:30.293Z,22.39
2023-04-20T16:53:30.288Z,22.45
2023-04-20T16:54:30.284Z,22.48
2023-04-20T16:55:30.309Z,22.45
2023-04-20T16:56:30.278Z,22.45
2023-04-20T16:57:30.262Z,22.36
2023-04-20T16:58:30.284Z,22.42
2023-04-20T16:59:30.269Z,22.42
2023-04-20T17:00:30.598Z,22.33
2023-04-20T17:01:30.316Z,22.36
2023-04-20T17:02:30.421Z,22.34
2023-04-20T17:03:30.491Z,22.27
2023-04-20T17:04:30.277Z,22.27
2023-04-20T17:05:30.240Z,22.30
2023-04-20T17:06:30.253Z,22.26
2023-04-20T17:07:30.312Z,22.27
2023-04-20T17:08:30.290Z,22.20
2023-04-20T17:09:30.233Z,22.30
2023-04-20T17:10:30.239Z,22.27
2023-04-20T17:11:30.241Z,22.27
2023-04-20T17:12:30.206Z,22.22
2023-04-20T17:13:30.225Z,22.22
2023-04-20T17:14:30.231Z,22.14
2023-04-20T17:15:30.226Z,22.15
2023-04-20T17:16:30.304Z,22.14
2023-04-20T17:17:30.206Z,22.08
2023-04-20T17:18:30.192Z,22.12
2023-04-20T17:19:30.192Z,22.24
2023-04-20T17:20:30.206Z,22.12
2023-04-20T17:21:30.188Z,22.15
2023-04-20T17:22:30.213Z,22.12